sensor_id;sensor_type;location;lat;lon;timestamp;temperature;humidity
8643;DHT22;4359;49.358;11.256;2023-06-14T00:00:40;14.20;99.90
8643;DHT22;4359;49.358;11.256;2023-06-14T00:03:08;14.20;99.90
8643;DHT22;4359;49.358;11.256;2023-06-14T00:05:36;14.20;99.90
8643;DHT22;4359;49.358;11.256;2023-06-14T00:08:06;14.30;99.90
8643;DHT22;4359;49.358;11.256;2023-06-14T00:10:38;14.20;99.90
8643;DHT22;4359;49.358;11.256;2023-06-14T00:13:06;14.10;99.90
8643;DHT22;4359;49.358;11.256;2023-06-14T00:15:35;14.10;99.90
8643;DHT22;4359;49.358;11.256;2023-06-14T00:18:02;14.00;99.90
8643;DHT22;4359;49.358;11.256;2023-06-14T00:20:28;13.90;99.90
8643;DHT22;4359;49.358;11.256;2023-06-14T00:22:55;13.70;99.90
8643;DHT22;4359;49.358;11.256;2023-06-14T00:25:24;13.60;99.90
8643;DHT22;4359;49.358;11.256;2023-06-14T00:27:56;13.40;99.90
8643;DHT22;4359;49.358;11.256;2023-06-14T00:30:22;13.20;99.90
8643;DHT22;4359;49.358;11.256;2023-06-14T00:32:48;13.10;99.90
8643;DHT22;4359;49.358;11.256;2023-06-14T00:35:15;13.10;99.90
8643;DHT22;4359;49.358;11.256;2023-06-14T00:37:41;13.00;99.90
8643;DHT22;4359;49.358;11.256;2023-06-14T00:40:07;12.90;99.90
8643;DHT22;4359;49.358;11.256;2023-06-14T00:42:33;12.80;99.90
8643;DHT22;4359;49.358;11.256;2023-06-14T00:45:00;12.70;99.90
8643;DHT22;4359;49.358;11.256;2023-06-14T00:47:26;12.60;99.90
8643;DHT22;4359;49.358;11.256;2023-06-14T00:49:53;12.50;99.90
8643;DHT22;4359;49.358;11.256;2023-06-14T00:52:19;12.50;99.90
8643;DHT22;4359;49.358;11.256;2023-06-14T00:54:46;12.40;99.90
8643;DHT22;4359;49.358;11.256;2023-06-14T00:57:13;12.30;99.90
8643;DHT22;4359;49.358;11.256;2023-06-14T00:59:43;12.20;99.90
8643;DHT22;4359;49.358;11.256;2023-06-14T01:02:09;12.10;99.90
8643;DHT22;4359;49.358;11.256;2023-06-14T01:04:35;12.00;99.90
8643;DHT22;4359;49.358;11.256;2023-06-14T01:07:07;11.80;99.90
8643;DHT22;4359;49.358;11.256;2023-06-14T01:15:20;11.70;99.90
8643;DHT22;4359;49.358;11.256;2023-06-14T01:17:49;11.80;99.90
8643;DHT22;4359;49.358;11.256;2023-06-14T01:20:17;11.90;99.90
8643;DHT22;4359;49.358;11.256;2023-06-14T01:22:52;11.90;99.90
8643;DHT22;4359;49.358;11.256;2023-06-14T01:25:21;11.80;99.90
8643;DHT22;4359;49.358;11.256;2023-06-14T01:28:08;11.80;99.90
8643;DHT22;4359;49.358;11.256;2023-06-14T01:30:38;12.00;99.90
8643;DHT22;4359;49.358;11.256;2023-06-14T01:33:04;12.10;99.90
8643;DHT22;4359;49.358;11.256;2023-06-14T01:35:31;12.10;99.90
8643;DHT22;4359;49.358;11.256;2023-06-14T01:37:57;12.10;99.90
8643;DHT22;4359;49.358;11.256;2023-06-14T01:40:24;12.10;99.90
8643;DHT22;4359;49.358;11.256;2023-06-14T01:42:51;12.10;99.90
8643;DHT22;4359;49.358;11.256;2023-06-14T01:45:17;12.30;99.90
8643;DHT22;4359;49.358;11.256;2023-06-14T01:47:44;12.40;99.90
8643;DHT22;4359;49.358;11.256;2023-06-14T01:50:10;12.40;99.90
8643;DHT22;4359;49.358;11.256;2023-06-14T01:52:37;12.40;99.90
8643;DHT22;4359;49.358;11.256;2023-06-14T01:55:06;12.40;99.90
8643;DHT22;4359;49.358;11.256;2023-06-14T01:57:33;12.30;99.90
8643;DHT22;4359;49.358;11.256;2023-06-14T01:59:59;12.20;99.90
8643;DHT22;4359;49.358;11.256;2023-06-14T02:02:24;12.20;99.90
8643;DHT22;4359;49.358;11.256;2023-06-14T02:04:50;12.30;99.90
8643;DHT22;4359;49.358;11.256;2023-06-14T02:07:16;12.30;99.90
8643;DHT22;4359;49.358;11.256;2023-06-14T02:09:41;12.30;99.90
8643;DHT22;4359;49.358;11.256;2023-06-14T02:12:08;12.30;99.90
8643;DHT22;4359;49.358;11.256;2023-06-14T02:14:34;12.20;99.90
8643;DHT22;4359;49.358;11.256;2023-06-14T02:17:00;12.20;99.90
8643;DHT22;4359;49.358;11.256;2023-06-14T02:19:26;12.10;99.90
8643;DHT22;4359;49.358;11.256;2023-06-14T02:21:52;12.00;99.90
8643;DHT22;4359;49.358;11.256;2023-06-14T02:24:18;11.90;99.90
8643;DHT22;4359;49.358;11.256;2023-06-14T02:26:44;11.80;99.90
8643;DHT22;4359;49.358;11.256;2023-06-14T02:29:09;11.90;99.90
8643;DHT22;4359;49.358;11.256;2023-06-14T02:31:37;12.00;99.90
8643;DHT22;4359;49.358;11.256;2023-06-14T02:34:03;12.00;99.90
8643;DHT22;4359;49.358;11.256;2023-06-14T02:36:29;12.00;99.90
8643;DHT22;4359;49.358;11.256;2023-06-14T02:38:57;12.20;99.90
8643;DHT22;4359;49.358;11.256;2023-06-14T02:41:24;12.10;99.90
8643;DHT22;4359;49.358;11.256;2023-06-14T02:43:50;12.00;99.90
8643;DHT22;4359;49.358;11.256;2023-06-14T02:46:15;12.10;99.90
8643;DHT22;4359;49.358;11.256;2023-06-14T02:48:41;12.10;99.90
8643;DHT22;4359;49.358;11.256;2023-06-14T02:51:06;12.20;99.90
8643;DHT22;4359;49.358;11.256;2023-06-14T02:53:34;12.10;99.90
8643;DHT22;4359;49.358;11.256;2023-06-14T02:56:00;12.10;99.90
8643;DHT22;4359;49.358;11.256;2023-06-14T02:58:26;12.00;99.90
8643;DHT22;4359;49.358;11.256;2023-06-14T03:00:52;11.90;99.90
8643;DHT22;4359;49.358;11.256;2023-06-14T03:03:21;11.80;99.90
8643;DHT22;4359;49.358;11.256;2023-06-14T03:05:48;11.70;99.90
8643;DHT22;4359;49.358;11.256;2023-06-14T03:08:15;11.60;99.90
8643;DHT22;4359;49.358;11.256;2023-06-14T03:10:47;11.60;99.90
8643;DHT22;4359;49.358;11.256;2023-06-14T03:13:14;11.60;99.90
8643;DHT22;4359;49.358;11.256;2023-06-14T03:15:42;11.50;99.90
8643;DHT22;4359;49.358;11.256;2023-06-14T03:18:08;11.40;99.90
8643;DHT22;4359;49.358;11.256;2023-06-14T03:20:35;11.30;99.90
8643;DHT22;4359;49.358;11.256;2023-06-14T03:23:02;11.20;99.90
8643;DHT22;4359;49.358;11.256;2023-06-14T03:25:29;11.10;99.90
8643;DHT22;4359;49.358;11.256;2023-06-14T03:27:57;11.00;99.90
8643;DHT22;4359;49.358;11.256;2023-06-14T03:30:23;11.00;99.90
8643;DHT22;4359;49.358;11.256;2023-06-14T03:32:49;11.20;99.90
8643;DHT22;4359;49.358;11.256;2023-06-14T03:35:19;11.20;99.90
8643;DHT22;4359;49.358;11.256;2023-06-14T03:37:45;11.20;99.90
8643;DHT22;4359;49.358;11.256;2023-06-14T03:40:12;11.20;99.90
8643;DHT22;4359;49.358;11.256;2023-06-14T03:42:39;11.10;99.90
8643;DHT22;4359;49.358;11.256;2023-06-14T03:45:06;11.20;99.90
8643;DHT22;4359;49.358;11.256;2023-06-14T03:47:32;11.20;99.90
8643;DHT22;4359;49.358;11.256;2023-06-14T03:49:58;11.30;99.90
8643;DHT22;4359;49.358;11.256;2023-06-14T03:52:23;11.30;99.90
8643;DHT22;4359;49.358;11.256;2023-06-14T03:54:50;11.30;99.90
8643;DHT22;4359;49.358;11.256;2023-06-14T03:57:16;11.40;99.90
8643;DHT22;4359;49.358;11.256;2023-06-14T03:59:42;11.40;99.90
8643;DHT22;4359;49.358;11.256;2023-06-14T04:02:08;11.40;99.90
8643;DHT22;4359;49.358;11.256;2023-06-14T04:04:37;11.50;99.90
8643;DHT22;4359;49.358;11.256;2023-06-14T04:07:03;11.50;99.90
8643;DHT22;4359;49.358;11.256;2023-06-14T04:09:31;11.40;99.90
8643;DHT22;4359;49.358;11.256;2023-06-14T04:11:57;11.40;99.90
8643;DHT22;4359;49.358;11.256;2023-06-14T04:14:23;11.40;99.90
8643;DHT22;4359;49.358;11.256;2023-06-14T04:16:49;11.40;99.90
8643;DHT22;4359;49.358;11.256;2023-06-14T04:19:15;11.50;99.90
8643;DHT22;4359;49.358;11.256;2023-06-14T04:21:41;11.50;99.90
8643;DHT22;4359;49.358;11.256;2023-06-14T04:24:07;11.60;99.90
8643;DHT22;4359;49.358;11.256;2023-06-14T04:26:42;11.60;99.90
8643;DHT22;4359;49.358;11.256;2023-06-14T04:29:11;11.70;99.90
8643;DHT22;4359;49.358;11.256;2023-06-14T04:31:43;11.80;99.90
8643;DHT22;4359;49.358;11.256;2023-06-14T04:34:10;12.00;99.90
8643;DHT22;4359;49.358;11.256;2023-06-14T04:36:42;12.20;99.90
8643;DHT22;4359;49.358;11.256;2023-06-14T04:39:18;12.30;99.90
8643;DHT22;4359;49.358;11.256;2023-06-14T04:41:43;12.50;99.90
8643;DHT22;4359;49.358;11.256;2023-06-14T04:44:09;12.70;99.90
8643;DHT22;4359;49.358;11.256;2023-06-14T04:46:36;12.80;99.90
8643;DHT22;4359;49.358;11.256;2023-06-14T04:49:20;13.00;99.90
8643;DHT22;4359;49.358;11.256;2023-06-14T04:51:46;13.20;99.90
8643;DHT22;4359;49.358;11.256;2023-06-14T04:54:16;13.40;99.90
8643;DHT22;4359;49.358;11.256;2023-06-14T04:56:44;13.60;99.90
8643;DHT22;4359;49.358;11.256;2023-06-14T04:59:10;13.70;99.90
8643;DHT22;4359;49.358;11.256;2023-06-14T05:01:40;13.90;99.90
8643;DHT22;4359;49.358;11.256;2023-06-14T05:04:06;14.10;99.90
8643;DHT22;4359;49.358;11.256;2023-06-14T05:06:31;14.20;99.90
8643;DHT22;4359;49.358;11.256;2023-06-14T05:08:57;14.30;99.90
8643;DHT22;4359;49.358;11.256;2023-06-14T05:11:23;14.20;99.90
8643;DHT22;4359;49.358;11.256;2023-06-14T05:13:52;14.20;99.90
8643;DHT22;4359;49.358;11.256;2023-06-14T05:16:18;14.20;99.90
8643;DHT22;4359;49.358;11.256;2023-06-14T05:18:45;14.30;99.90
8643;DHT22;4359;49.358;11.256;2023-06-14T05:21:12;14.30;99.90
8643;DHT22;4359;49.358;11.256;2023-06-14T05:23:38;14.20;99.90
8643;DHT22;4359;49.358;11.256;2023-06-14T05:26:03;14.10;99.90
8643;DHT22;4359;49.358;11.256;2023-06-14T05:28:30;14.20;99.90
8643;DHT22;4359;49.358;11.256;2023-06-14T05:30:56;14.20;99.90
8643;DHT22;4359;49.358;11.256;2023-06-14T05:33:22;14.20;99.90
8643;DHT22;4359;49.358;11.256;2023-06-14T05:35:48;14.30;99.90
8643;DHT22;4359;49.358;11.256;2023-06-14T05:38:13;14.30;99.90
8643;DHT22;4359;49.358;11.256;2023-06-14T05:40:39;14.40;99.90
8643;DHT22;4359;49.358;11.256;2023-06-14T05:43:04;14.50;99.90
8643;DHT22;4359;49.358;11.256;2023-06-14T05:45:30;14.60;99.90
8643;DHT22;4359;49.358;11.256;2023-06-14T05:47:56;14.70;99.90
8643;DHT22;4359;49.358;11.256;2023-06-14T05:50:21;14.80;99.90
8643;DHT22;4359;49.358;11.256;2023-06-14T05:52:47;14.80;99.90
8643;DHT22;4359;49.358;11.256;2023-06-14T05:55:13;15.00;99.90
8643;DHT22;4359;49.358;11.256;2023-06-14T05:57:38;15.20;99.90
8643;DHT22;4359;49.358;11.256;2023-06-14T06:00:04;15.50;99.90
8643;DHT22;4359;49.358;11.256;2023-06-14T06:02:40;15.80;99.90
8643;DHT22;4359;49.358;11.256;2023-06-14T06:05:06;16.00;99.90
8643;DHT22;4359;49.358;11.256;2023-06-14T06:07:32;16.20;99.90
8643;DHT22;4359;49.358;11.256;2023-06-14T06:09:58;16.20;99.90
8643;DHT22;4359;49.358;11.256;2023-06-14T06:12:23;16.30;99.90
8643;DHT22;4359;49.358;11.256;2023-06-14T06:14:49;16.60;99.90
8643;DHT22;4359;49.358;11.256;2023-06-14T06:17:15;16.80;99.90
8643;DHT22;4359;49.358;11.256;2023-06-14T06:19:40;16.70;99.90
8643;DHT22;4359;49.358;11.256;2023-06-14T06:22:06;16.90;99.90
8643;DHT22;4359;49.358;11.256;2023-06-14T06:24:32;17.00;99.90
8643;DHT22;4359;49.358;11.256;2023-06-14T06:26:58;17.20;99.90
8643;DHT22;4359;49.358;11.256;2023-06-14T06:29:23;17.40;99.90
8643;DHT22;4359;49.358;11.256;2023-06-14T06:31:49;17.60;99.90
8643;DHT22;4359;49.358;11.256;2023-06-14T06:34:14;17.70;99.90
8643;DHT22;4359;49.358;11.256;2023-06-14T06:36:40;17.70;99.90
8643;DHT22;4359;49.358;11.256;2023-06-14T06:39:06;17.90;99.90
8643;DHT22;4359;49.358;11.256;2023-06-14T06:41:37;18.10;99.90
8643;DHT22;4359;49.358;11.256;2023-06-14T06:44:05;18.30;99.90
8643;DHT22;4359;49.358;11.256;2023-06-14T06:46:32;18.50;99.90
8643;DHT22;4359;49.358;11.256;2023-06-14T06:48:58;18.80;99.90
8643;DHT22;4359;49.358;11.256;2023-06-14T06:51:24;19.10;99.90
8643;DHT22;4359;49.358;11.256;2023-06-14T06:53:53;19.10;99.90
8643;DHT22;4359;49.358;11.256;2023-06-14T06:56:20;19.10;99.90
8643;DHT22;4359;49.358;11.256;2023-06-14T06:58:47;19.50;99.90
8643;DHT22;4359;49.358;11.256;2023-06-14T07:01:12;19.60;99.90
8643;DHT22;4359;49.358;11.256;2023-06-14T07:03:38;19.70;99.90
8643;DHT22;4359;49.358;11.256;2023-06-14T07:06:04;19.90;99.90
8643;DHT22;4359;49.358;11.256;2023-06-14T07:08:30;20.10;99.90
8643;DHT22;4359;49.358;11.256;2023-06-14T07:10:55;20.50;99.90
8643;DHT22;4359;49.358;11.256;2023-06-14T07:13:21;20.20;99.90
8643;DHT22;4359;49.358;11.256;2023-06-14T07:15:47;20.10;99.90
8643;DHT22;4359;49.358;11.256;2023-06-14T07:18:13;20.00;99.90
8643;DHT22;4359;49.358;11.256;2023-06-14T07:20:38;20.00;99.90
8643;DHT22;4359;49.358;11.256;2023-06-14T07:23:04;19.80;99.90
8643;DHT22;4359;49.358;11.256;2023-06-14T07:25:31;20.00;99.90
8643;DHT22;4359;49.358;11.256;2023-06-14T07:27:56;20.30;99.90
8643;DHT22;4359;49.358;11.256;2023-06-14T07:30:22;20.50;99.90
8643;DHT22;4359;49.358;11.256;2023-06-14T07:32:52;20.60;99.90
8643;DHT22;4359;49.358;11.256;2023-06-14T07:35:18;21.00;99.90
8643;DHT22;4359;49.358;11.256;2023-06-14T07:37:44;21.00;99.90
8643;DHT22;4359;49.358;11.256;2023-06-14T07:40:11;21.60;99.90
8643;DHT22;4359;49.358;11.256;2023-06-14T07:42:36;21.60;99.20
8643;DHT22;4359;49.358;11.256;2023-06-14T07:45:03;21.90;99.90
8643;DHT22;4359;49.358;11.256;2023-06-14T07:47:29;22.10;98.00
8643;DHT22;4359;49.358;11.256;2023-06-14T07:49:55;22.10;97.80
8643;DHT22;4359;49.358;11.256;2023-06-14T07:52:21;22.20;97.30
8643;DHT22;4359;49.358;11.256;2023-06-14T07:54:47;22.00;96.90
8643;DHT22;4359;49.358;11.256;2023-06-14T07:57:13;22.10;97.90
8643;DHT22;4359;49.358;11.256;2023-06-14T07:59:38;22.30;96.20
8643;DHT22;4359;49.358;11.256;2023-06-14T08:02:04;22.60;96.50
8643;DHT22;4359;49.358;11.256;2023-06-14T08:04:31;22.50;95.50
8643;DHT22;4359;49.358;11.256;2023-06-14T08:06:57;22.50;95.30
8643;DHT22;4359;49.358;11.256;2023-06-14T08:09:22;22.40;96.50
8643;DHT22;4359;49.358;11.256;2023-06-14T08:11:49;22.60;96.50
8643;DHT22;4359;49.358;11.256;2023-06-14T08:14:15;22.70;96.10
8643;DHT22;4359;49.358;11.256;2023-06-14T08:16:41;22.80;94.30
8643;DHT22;4359;49.358;11.256;2023-06-14T08:19:07;22.90;93.70
8643;DHT22;4359;49.358;11.256;2023-06-14T08:21:32;23.30;93.60
8643;DHT22;4359;49.358;11.256;2023-06-14T08:23:59;22.90;93.60
8643;DHT22;4359;49.358;11.256;2023-06-14T08:26:25;22.80;93.80
8643;DHT22;4359;49.358;11.256;2023-06-14T08:28:54;22.40;94.20
8643;DHT22;4359;49.358;11.256;2023-06-14T08:31:20;22.60;94.80
8643;DHT22;4359;49.358;11.256;2023-06-14T08:33:46;22.70;94.50
8643;DHT22;4359;49.358;11.256;2023-06-14T08:36:12;23.20;93.70
8643;DHT22;4359;49.358;11.256;2023-06-14T08:38:41;23.60;94.10
8643;DHT22;4359;49.358;11.256;2023-06-14T08:41:07;24.40;93.90
8643;DHT22;4359;49.358;11.256;2023-06-14T08:43:33;23.80;92.50
8643;DHT22;4359;49.358;11.256;2023-06-14T08:46:02;23.10;93.60
8643;DHT22;4359;49.358;11.256;2023-06-14T08:48:28;22.80;92.50
8643;DHT22;4359;49.358;11.256;2023-06-14T08:51:00;23.20;93.20
8643;DHT22;4359;49.358;11.256;2023-06-14T08:53:32;23.10;93.20
8643;DHT22;4359;49.358;11.256;2023-06-14T08:56:02;23.40;93.40
8643;DHT22;4359;49.358;11.256;2023-06-14T08:58:33;23.70;92.80
8643;DHT22;4359;49.358;11.256;2023-06-14T09:01:01;23.20;93.30
8643;DHT22;4359;49.358;11.256;2023-06-14T09:03:26;22.80;93.30
8643;DHT22;4359;49.358;11.256;2023-06-14T09:05:56;22.40;93.90
8643;DHT22;4359;49.358;11.256;2023-06-14T09:08:25;22.80;94.00
8643;DHT22;4359;49.358;11.256;2023-06-14T09:10:51;23.50;94.10
8643;DHT22;4359;49.358;11.256;2023-06-14T09:13:17;24.10;93.60
8643;DHT22;4359;49.358;11.256;2023-06-14T09:15:43;24.50;93.60
8643;DHT22;4359;49.358;11.256;2023-06-14T09:18:09;24.30;92.80
8643;DHT22;4359;49.358;11.256;2023-06-14T09:20:35;24.50;93.10
8643;DHT22;4359;49.358;11.256;2023-06-14T09:23:01;24.90;92.10
8643;DHT22;4359;49.358;11.256;2023-06-14T09:25:28;25.10;91.50
8643;DHT22;4359;49.358;11.256;2023-06-14T09:27:53;25.00;93.50
8643;DHT22;4359;49.358;11.256;2023-06-14T09:30:20;25.60;91.10
8643;DHT22;4359;49.358;11.256;2023-06-14T09:32:46;24.80;92.00
8643;DHT22;4359;49.358;11.256;2023-06-14T09:35:12;24.50;93.40
8643;DHT22;4359;49.358;11.256;2023-06-14T09:37:38;25.10;93.20
8643;DHT22;4359;49.358;11.256;2023-06-14T09:40:05;24.90;91.20
8643;DHT22;4359;49.358;11.256;2023-06-14T09:42:32;25.00;92.30
8643;DHT22;4359;49.358;11.256;2023-06-14T09:45:02;25.30;90.00
8643;DHT22;4359;49.358;11.256;2023-06-14T09:47:28;25.20;89.30
8643;DHT22;4359;49.358;11.256;2023-06-14T09:49:55;24.70;88.80
8643;DHT22;4359;49.358;11.256;2023-06-14T09:52:21;24.50;88.70
8643;DHT22;4359;49.358;11.256;2023-06-14T09:54:49;23.90;88.70
8643;DHT22;4359;49.358;11.256;2023-06-14T09:57:16;24.20;90.90
8643;DHT22;4359;49.358;11.256;2023-06-14T09:59:45;24.00;88.60
8643;DHT22;4359;49.358;11.256;2023-06-14T10:04:45;24.70;86.30
8643;DHT22;4359;49.358;11.256;2023-06-14T10:07:14;24.20;88.20
8643;DHT22;4359;49.358;11.256;2023-06-14T10:09:44;24.70;86.80
8643;DHT22;4359;49.358;11.256;2023-06-14T10:12:14;24.50;84.70
8643;DHT22;4359;49.358;11.256;2023-06-14T10:14:49;24.20;82.80
8643;DHT22;4359;49.358;11.256;2023-06-14T10:17:35;23.80;86.70
8643;DHT22;4359;49.358;11.256;2023-06-14T10:20:34;23.40;88.20
8643;DHT22;4359;49.358;11.256;2023-06-14T10:23:32;23.30;84.60
8643;DHT22;4359;49.358;11.256;2023-06-14T10:26:00;23.40;87.10
8643;DHT22;4359;49.358;11.256;2023-06-14T10:28:26;23.60;85.90
8643;DHT22;4359;49.358;11.256;2023-06-14T10:31:12;23.70;86.00
8643;DHT22;4359;49.358;11.256;2023-06-14T10:33:50;23.90;88.70
8643;DHT22;4359;49.358;11.256;2023-06-14T10:36:28;24.00;89.30
8643;DHT22;4359;49.358;11.256;2023-06-14T10:39:17;23.60;90.60
8643;DHT22;4359;49.358;11.256;2023-06-14T10:41:54;23.90;90.60
8643;DHT22;4359;49.358;11.256;2023-06-14T10:46:55;25.20;88.90
8643;DHT22;4359;49.358;11.256;2023-06-14T10:49:43;24.70;90.40
8643;DHT22;4359;49.358;11.256;2023-06-14T10:52:14;24.40;90.30
8643;DHT22;4359;49.358;11.256;2023-06-14T10:57:24;24.00;89.50
8643;DHT22;4359;49.358;11.256;2023-06-14T10:59:50;24.10;90.40
8643;DHT22;4359;49.358;11.256;2023-06-14T11:04:48;24.10;89.40
8643;DHT22;4359;49.358;11.256;2023-06-14T11:12:41;24.00;87.40
8643;DHT22;4359;49.358;11.256;2023-06-14T11:15:11;24.20;87.00
8643;DHT22;4359;49.358;11.256;2023-06-14T11:17:36;24.50;85.30
8643;DHT22;4359;49.358;11.256;2023-06-14T11:20:12;24.30;87.00
8643;DHT22;4359;49.358;11.256;2023-06-14T11:22:44;24.30;86.30
8643;DHT22;4359;49.358;11.256;2023-06-14T11:25:13;24.90;90.10
8643;DHT22;4359;49.358;11.256;2023-06-14T11:27:39;26.10;86.00
8643;DHT22;4359;49.358;11.256;2023-06-14T11:30:07;26.70;87.90
8643;DHT22;4359;49.358;11.256;2023-06-14T11:32:33;26.50;82.20
8643;DHT22;4359;49.358;11.256;2023-06-14T11:34:59;26.00;82.00
8643;DHT22;4359;49.358;11.256;2023-06-14T11:37:26;25.40;82.10
8643;DHT22;4359;49.358;11.256;2023-06-14T11:39:56;25.10;81.00
8643;DHT22;4359;49.358;11.256;2023-06-14T11:42:24;24.70;84.00
8643;DHT22;4359;49.358;11.256;2023-06-14T11:44:50;24.10;82.50
8643;DHT22;4359;49.358;11.256;2023-06-14T11:47:16;23.90;82.60
8643;DHT22;4359;49.358;11.256;2023-06-14T11:49:41;23.80;84.60
8643;DHT22;4359;49.358;11.256;2023-06-14T11:52:07;23.60;83.90
8643;DHT22;4359;49.358;11.256;2023-06-14T11:54:33;23.50;83.00
8643;DHT22;4359;49.358;11.256;2023-06-14T11:56:59;23.50;82.30
8643;DHT22;4359;49.358;11.256;2023-06-14T11:59:25;23.40;83.90
8643;DHT22;4359;49.358;11.256;2023-06-14T12:01:53;23.60;84.00
8643;DHT22;4359;49.358;11.256;2023-06-14T12:04:28;23.70;84.70
8643;DHT22;4359;49.358;11.256;2023-06-14T12:06:54;24.00;83.20
8643;DHT22;4359;49.358;11.256;2023-06-14T12:09:21;24.20;82.50
8643;DHT22;4359;49.358;11.256;2023-06-14T12:11:59;23.90;83.60
8643;DHT22;4359;49.358;11.256;2023-06-14T12:14:32;23.70;84.90
8643;DHT22;4359;49.358;11.256;2023-06-14T12:17:05;24.00;86.70
8643;DHT22;4359;49.358;11.256;2023-06-14T12:19:41;24.40;83.30
8643;DHT22;4359;49.358;11.256;2023-06-14T12:22:09;24.50;84.00
8643;DHT22;4359;49.358;11.256;2023-06-14T12:24:35;24.90;83.20
8643;DHT22;4359;49.358;11.256;2023-06-14T12:27:01;25.00;84.00
8643;DHT22;4359;49.358;11.256;2023-06-14T12:29:30;25.60;84.00
8643;DHT22;4359;49.358;11.256;2023-06-14T12:31:56;25.60;83.50
8643;DHT22;4359;49.358;11.256;2023-06-14T12:34:26;26.30;82.60
8643;DHT22;4359;49.358;11.256;2023-06-14T12:36:55;27.00;80.90
8643;DHT22;4359;49.358;11.256;2023-06-14T12:39:21;26.80;79.90
8643;DHT22;4359;49.358;11.256;2023-06-14T12:41:48;27.40;78.10
8643;DHT22;4359;49.358;11.256;2023-06-14T12:44:14;27.60;77.90
8643;DHT22;4359;49.358;11.256;2023-06-14T12:46:41;28.40;80.10
8643;DHT22;4359;49.358;11.256;2023-06-14T12:49:09;28.90;74.10
8643;DHT22;4359;49.358;11.256;2023-06-14T12:51:36;29.20;71.00
8643;DHT22;4359;49.358;11.256;2023-06-14T12:54:02;28.80;73.00
8643;DHT22;4359;49.358;11.256;2023-06-14T12:56:28;29.20;69.00
8643;DHT22;4359;49.358;11.256;2023-06-14T12:58:53;29.30;67.40
8643;DHT22;4359;49.358;11.256;2023-06-14T13:01:19;29.00;67.50
8643;DHT22;4359;49.358;11.256;2023-06-14T13:03:46;29.20;72.90
8643;DHT22;4359;49.358;11.256;2023-06-14T13:06:12;30.10;70.20
8643;DHT22;4359;49.358;11.256;2023-06-14T13:08:38;30.30;68.20
8643;DHT22;4359;49.358;11.256;2023-06-14T13:11:03;29.50;65.00
8643;DHT22;4359;49.358;11.256;2023-06-14T13:13:29;29.00;65.80
8643;DHT22;4359;49.358;11.256;2023-06-14T13:15:54;29.20;68.60
8643;DHT22;4359;49.358;11.256;2023-06-14T13:18:20;29.90;68.20
8643;DHT22;4359;49.358;11.256;2023-06-14T13:20:47;29.30;66.60
8643;DHT22;4359;49.358;11.256;2023-06-14T13:23:13;28.90;69.90
8643;DHT22;4359;49.358;11.256;2023-06-14T13:25:39;29.20;68.00
8643;DHT22;4359;49.358;11.256;2023-06-14T13:28:05;29.50;67.80
8643;DHT22;4359;49.358;11.256;2023-06-14T13:30:32;29.70;66.60
8643;DHT22;4359;49.358;11.256;2023-06-14T13:32:58;29.20;66.60
8643;DHT22;4359;49.358;11.256;2023-06-14T13:35:24;28.40;69.50
8643;DHT22;4359;49.358;11.256;2023-06-14T13:37:50;28.20;68.00
8643;DHT22;4359;49.358;11.256;2023-06-14T13:40:16;28.40;69.90
8643;DHT22;4359;49.358;11.256;2023-06-14T13:42:41;28.40;68.20
8643;DHT22;4359;49.358;11.256;2023-06-14T13:45:10;28.90;68.90
8643;DHT22;4359;49.358;11.256;2023-06-14T13:47:36;29.50;68.20
8643;DHT22;4359;49.358;11.256;2023-06-14T13:50:02;29.70;68.60
8643;DHT22;4359;49.358;11.256;2023-06-14T13:52:28;29.60;66.60
8643;DHT22;4359;49.358;11.256;2023-06-14T13:54:54;29.50;68.80
8643;DHT22;4359;49.358;11.256;2023-06-14T13:57:20;29.20;67.20
8643;DHT22;4359;49.358;11.256;2023-06-14T13:59:46;28.00;66.00
8643;DHT22;4359;49.358;11.256;2023-06-14T14:02:12;27.40;69.60
8643;DHT22;4359;49.358;11.256;2023-06-14T14:04:38;27.10;70.00
8643;DHT22;4359;49.358;11.256;2023-06-14T14:07:05;26.70;71.10
8643;DHT22;4359;49.358;11.256;2023-06-14T14:09:35;26.20;71.20
8643;DHT22;4359;49.358;11.256;2023-06-14T14:12:02;25.70;71.10
8643;DHT22;4359;49.358;11.256;2023-06-14T14:14:28;25.20;70.20
8643;DHT22;4359;49.358;11.256;2023-06-14T14:16:54;25.10;71.60
8643;DHT22;4359;49.358;11.256;2023-06-14T14:19:23;24.90;71.10
8643;DHT22;4359;49.358;11.256;2023-06-14T14:21:48;25.00;71.50
8643;DHT22;4359;49.358;11.256;2023-06-14T14:24:14;25.00;69.70
8643;DHT22;4359;49.358;11.256;2023-06-14T14:26:41;25.30;72.30
8643;DHT22;4359;49.358;11.256;2023-06-14T14:29:06;25.60;69.70
8643;DHT22;4359;49.358;11.256;2023-06-14T14:31:32;25.70;69.90
8643;DHT22;4359;49.358;11.256;2023-06-14T14:33:58;26.60;73.20
8643;DHT22;4359;49.358;11.256;2023-06-14T14:36:24;28.10;67.90
8643;DHT22;4359;49.358;11.256;2023-06-14T14:38:49;29.10;67.70
8643;DHT22;4359;49.358;11.256;2023-06-14T14:41:17;29.70;66.00
8643;DHT22;4359;49.358;11.256;2023-06-14T14:43:43;29.50;68.10
8643;DHT22;4359;49.358;11.256;2023-06-14T14:46:09;29.30;63.70
8643;DHT22;4359;49.358;11.256;2023-06-14T14:48:35;28.70;65.70
8643;DHT22;4359;49.358;11.256;2023-06-14T14:51:00;27.80;70.90
8643;DHT22;4359;49.358;11.256;2023-06-14T14:53:27;27.50;71.50
8643;DHT22;4359;49.358;11.256;2023-06-14T14:55:52;27.00;71.80
8643;DHT22;4359;49.358;11.256;2023-06-14T14:58:18;26.70;74.20
8643;DHT22;4359;49.358;11.256;2023-06-14T15:00:45;26.00;75.20
8643;DHT22;4359;49.358;11.256;2023-06-14T15:03:11;25.70;75.90
8643;DHT22;4359;49.358;11.256;2023-06-14T15:05:37;25.30;75.00
8643;DHT22;4359;49.358;11.256;2023-06-14T15:08:03;24.90;75.50
8643;DHT22;4359;49.358;11.256;2023-06-14T15:10:30;24.50;75.90
8643;DHT22;4359;49.358;11.256;2023-06-14T15:12:56;24.40;75.90
8643;DHT22;4359;49.358;11.256;2023-06-14T15:15:22;24.30;76.50
8643;DHT22;4359;49.358;11.256;2023-06-14T15:17:48;24.20;78.90
8643;DHT22;4359;49.358;11.256;2023-06-14T15:20:13;24.30;79.50
8643;DHT22;4359;49.358;11.256;2023-06-14T15:22:40;24.40;77.70
8643;DHT22;4359;49.358;11.256;2023-06-14T15:25:07;24.10;77.40
8643;DHT22;4359;49.358;11.256;2023-06-14T15:27:32;23.90;77.80
8643;DHT22;4359;49.358;11.256;2023-06-14T15:29:58;24.20;78.90
8643;DHT22;4359;49.358;11.256;2023-06-14T15:32:24;24.50;77.30
8643;DHT22;4359;49.358;11.256;2023-06-14T15:34:49;24.60;76.20
8643;DHT22;4359;49.358;11.256;2023-06-14T15:37:15;24.60;76.60
8643;DHT22;4359;49.358;11.256;2023-06-14T15:39:41;24.40;76.30
8643;DHT22;4359;49.358;11.256;2023-06-14T15:42:07;24.40;77.10
8643;DHT22;4359;49.358;11.256;2023-06-14T15:44:33;24.30;75.90
8643;DHT22;4359;49.358;11.256;2023-06-14T15:46:59;24.30;75.30
8643;DHT22;4359;49.358;11.256;2023-06-14T15:49:24;24.20;76.70
8643;DHT22;4359;49.358;11.256;2023-06-14T15:51:51;24.00;76.80
8643;DHT22;4359;49.358;11.256;2023-06-14T15:54:16;23.80;78.40
8643;DHT22;4359;49.358;11.256;2023-06-14T15:56:42;23.80;78.40
8643;DHT22;4359;49.358;11.256;2023-06-14T16:01:36;24.00;80.00
8643;DHT22;4359;49.358;11.256;2023-06-14T16:04:01;24.20;77.20
8643;DHT22;4359;49.358;11.256;2023-06-14T16:06:27;23.80;77.30
8643;DHT22;4359;49.358;11.256;2023-06-14T16:08:53;23.80;77.20